Time;durP1;ratioP1;P1;durP2;ratioP2;P2;SDS_P1;SDS_P2;PMS_P1;PMS_P2;Temp;Humidity;BMP_temperature;BMP_pressure;BME280_temperature;BME280_humidity;BME280_pressure;Samples;Min_cycle;Max_cycle;Signal;HPM_P1;HPM_P2
2023/05/18 00:01:14;;;;;;;5.10;2.50;;;9.70;99.90;;;;;;5052099;28;20258;-58
2023/05/18 00:03:41;;;;;;;4.27;3.03;;;9.70;99.90;;;;;;5051705;28;20201;-58
2023/05/18 00:06:08;;;;;;;3.30;3.03;;;9.70;99.90;;;;;;5050070;28;20265;-58
2023/05/18 00:08:36;;;;;;;2.73;2.47;;;9.70;99.90;;;;;;5051967;28;20705;-58
2023/05/18 00:11:04;;;;;;;5.67;3.23;;;9.60;99.90;;;;;;5052168;28;20207;-58
2023/05/18 00:13:32;;;;;;;3.53;2.47;;;9.60;99.90;;;;;;5053333;28;20240;-58
2023/05/18 00:15:59;;;;;;;3.63;2.70;;;9.60;99.90;;;;;;5052165;28;20286;-58
2023/05/18 00:18:26;;;;;;;2.70;2.50;;;9.50;99.90;;;;;;5052110;28;20857;-58
2023/05/18 00:20:57;;;;;;;5.27;3.13;;;9.40;99.90;;;;;;5053367;28;20203;-58
2023/05/18 00:23:28;;;;;;;3.80;3.13;;;9.40;99.90;;;;;;5052975;28;20751;-58
2023/05/18 00:25:56;;;;;;;4.10;3.70;;;9.40;99.90;;;;;;5053070;28;20208;-58
2023/05/18 00:28:23;;;;;;;4.57;4.17;;;9.40;99.90;;;;;;5052966;28;20216;-58
2023/05/18 00:30:51;;;;;;;5.83;4.73;;;9.40;99.90;;;;;;5051083;28;20279;-58
2023/05/18 00:33:18;;;;;;;6.70;4.83;;;9.30;99.90;;;;;;5051937;28;20208;-58
2023/05/18 00:35:45;;;;;;;5.20;4.80;;;9.30;99.90;;;;;;5052690;28;20670;-59
2023/05/18 00:38:14;;;;;;;7.13;5.63;;;9.20;99.90;;;;;;5052571;28;20285;-58
2023/05/18 00:40:41;;;;;;;5.57;3.30;;;9.20;99.90;;;;;;5052725;28;20211;-58
2023/05/18 00:43:08;;;;;;;6.27;5.77;;;9.20;99.90;;;;;;5051771;28;20203;-58
2023/05/18 00:45:35;;;;;;;9.80;8.27;;;9.20;99.90;;;;;;5043859;28;20213;-58
2023/05/18 00:48:04;;;;;;;6.20;3.80;;;9.10;99.90;;;;;;5050159;28;20311;-58
2023/05/18 00:50:31;;;;;;;3.63;2.57;;;9.00;99.90;;;;;;5052499;28;20201;-58
2023/05/18 00:52:58;;;;;;;3.87;2.90;;;9.00;99.90;;;;;;5051429;28;20712;-58
2023/05/18 00:55:26;;;;;;;5.30;2.27;;;8.90;99.90;;;;;;5050434;28;20673;-58
2023/05/18 00:57:55;;;;;;;5.00;2.50;;;8.80;99.90;;;;;;5051029;28;20238;-58
2023/05/18 01:00:22;;;;;;;3.00;2.80;;;8.80;99.90;;;;;;5051735;28;20797;-58
2023/05/18 01:02:49;;;;;;;2.83;2.57;;;8.70;99.90;;;;;;5050336;28;20226;-59
2023/05/18 01:05:18;;;;;;;3.87;2.80;;;8.50;99.90;;;;;;5051098;28;20198;-58
2023/05/18 01:07:46;;;;;;;3.73;2.50;;;8.40;99.90;;;;;;5050073;28;20219;-58
2023/05/18 01:10:15;;;;;;;3.73;2.73;;;8.30;99.90;;;;;;5050199;28;20738;-57
2023/05/18 01:12:48;;;;;;;7.20;5.87;;;8.30;99.90;;;;;;5050139;28;20206;-58
2023/05/18 01:15:18;;;;;;;10.43;7.70;;;8.30;99.90;;;;;;5043151;28;20269;-59
2023/05/18 01:18:14;;;;;;;5.80;4.00;;;8.30;99.90;;;;;;5050101;28;20694;-58
2023/05/18 01:20:46;;;;;;;6.20;5.53;;;8.20;99.90;;;;;;5047911;28;20234;-58
2023/05/18 01:23:47;;;;;;;6.03;5.33;;;8.10;99.90;;;;;;5051593;28;20208;-58
2023/05/18 01:26:23;;;;;;;3.57;2.90;;;8.10;99.90;;;;;;5051800;28;20254;-58
2023/05/18 01:28:51;;;;;;;9.07;5.60;;;8.10;99.90;;;;;;5050313;28;20219;-58
2023/05/18 01:31:19;;;;;;;6.13;4.97;;;8.10;99.90;;;;;;5051713;28;20253;-58
2023/05/18 01:33:46;;;;;;;3.77;3.30;;;8.20;99.90;;;;;;5048552;28;20631;-58
2023/05/18 01:36:13;;;;;;;3.30;3.07;;;8.30;99.90;;;;;;5051702;28;20200;-58
2023/05/18 01:38:41;;;;;;;4.03;2.83;;;8.20;99.90;;;;;;5051596;28;20227;-58
2023/05/18 01:41:14;;;;;;;3.80;3.13;;;8.20;99.90;;;;;;5048652;28;20286;-58
2023/05/18 01:43:50;;;;;;;4.00;3.70;;;8.10;99.90;;;;;;5051153;28;20204;-58
2023/05/18 01:46:32;;;;;;;8.17;7.13;;;7.90;99.90;;;;;;5049902;28;20262;-58
2023/05/18 01:49:03;;;;;;;7.40;4.87;;;7.70;99.90;;;;;;5051190;28;20364;-58
2023/05/18 01:51:36;;;;;;;7.80;6.53;;;7.70;99.90;;;;;;5051644;28;20212;-57
2023/05/18 01:54:07;;;;;;;13.37;12.17;;;7.70;99.90;;;;;;5050251;28;20278;-58
2023/05/18 01:56:35;;;;;;;9.23;8.40;;;7.70;99.90;;;;;;5051292;28;20199;-59
2023/05/18 01:59:03;;;;;;;8.43;5.90;;;7.60;99.90;;;;;;5051167;28;20256;-58
2023/05/18 02:01:31;;;;;;;5.13;4.63;;;7.50;99.90;;;;;;5050687;28;20218;-58
2023/05/18 02:03:58;;;;;;;4.70;4.30;;;7.50;99.90;;;;;;5051188;28;20286;-58
2023/05/18 02:06:25;;;;;;;4.13;3.73;;;7.50;99.90;;;;;;5049037;28;20206;-58
2023/05/18 02:08:52;;;;;;;4.00;3.13;;;7.50;99.90;;;;;;5050985;28;20713;-59
2023/05/18 02:11:20;;;;;;;6.27;3.93;;;7.40;99.90;;;;;;5051396;28;20211;-58
2023/05/18 02:13:47;;;;;;;5.73;3.87;;;7.40;99.90;;;;;;5051149;28;20296;-58
2023/05/18 02:16:15;;;;;;;8.37;5.10;;;7.30;99.90;;;;;;5051236;28;20210;-58
2023/05/18 02:18:43;;;;;;;7.60;5.70;;;7.20;99.90;;;;;;5048519;28;20318;-59
2023/05/18 02:21:12;;;;;;;5.97;4.43;;;7.20;99.90;;;;;;5050057;28;20231;-58
2023/05/18 02:23:39;;;;;;;5.37;4.53;;;7.30;99.90;;;;;;5050961;28;20210;-58
2023/05/18 02:26:06;;;;;;;8.40;6.77;;;7.30;99.90;;;;;;5050861;28;20205;-58
2023/05/18 02:28:33;;;;;;;7.43;6.83;;;7.30;99.90;;;;;;5051057;28;20700;-58
2023/05/18 02:31:07;;;;;;;8.53;7.83;;;7.30;99.90;;;;;;5049130;28;20276;-58
2023/05/18 02:33:38;;;;;;;7.37;5.97;;;7.30;99.90;;;;;;5049224;28;20251;-58
2023/05/18 02:36:11;;;;;;;5.07;3.90;;;7.30;99.90;;;;;;5050777;28;20204;-58
2023/05/18 02:38:38;;;;;;;6.57;4.10;;;7.30;99.90;;;;;;5050687;28;20259;-58
2023/05/18 02:41:06;;;;;;;4.43;3.73;;;7.20;99.90;;;;;;5050814;28;20653;-59
2023/05/18 02:43:33;;;;;;;6.43;3.53;;;7.20;99.90;;;;;;5048058;28;20204;-58
2023/05/18 02:46:00;;;;;;;3.30;3.10;;;7.10;99.90;;;;;;5050828;28;20286;-58
2023/05/18 02:48:27;;;;;;;5.87;3.50;;;7.10;99.90;;;;;;5050946;28;20305;-59
2023/05/18 02:50:55;;;;;;;4.30;3.40;;;7.10;99.90;;;;;;5041622;28;20262;-58
2023/05/18 02:53:23;;;;;;;4.63;3.20;;;7.20;99.90;;;;;;5050328;28;20250;-58
2023/05/18 02:55:55;;;;;;;4.53;3.03;;;7.40;99.90;;;;;;5048637;28;20579;-58
2023/05/18 02:58:24;;;;;;;5.77;2.80;;;7.30;99.90;;;;;;5052478;28;20223;-57
2023/05/18 03:00:53;;;;;;;3.40;2.63;;;7.40;99.90;;;;;;5034723;28;20204;-58
2023/05/18 03:03:22;;;;;;;4.30;3.30;;;7.40;99.90;;;;;;5034276;28;20231;-58
2023/05/18 03:05:51;;;;;;;3.80;3.43;;;7.40;99.90;;;;;;5040517;28;20237;-58
2023/05/18 03:08:20;;;;;;;4.13;3.67;;;7.40;99.90;;;;;;5046695;28;20215;-58
2023/05/18 03:10:47;;;;;;;4.40;3.97;;;7.30;99.90;;;;;;5054135;28;20254;-57
2023/05/18 03:13:14;;;;;;;3.50;2.33;;;7.20;99.90;;;;;;5054177;28;20253;-58
2023/05/18 03:15:41;;;;;;;3.40;3.10;;;7.10;99.90;;;;;;5054025;28;20211;-57
2023/05/18 03:18:08;;;;;;;3.47;3.23;;;7.00;99.90;;;;;;5054120;28;20246;-58
2023/05/18 03:20:36;;;;;;;7.77;3.27;;;7.00;99.90;;;;;;5051801;28;20273;-58
2023/05/18 03:23:03;;;;;;;3.77;2.83;;;6.90;99.90;;;;;;5051168;28;20521;-58
2023/05/18 03:25:32;;;;;;;3.73;2.70;;;6.90;99.90;;;;;;5054069;28;20204;-59
2023/05/18 03:27:58;;;;;;;4.00;2.60;;;6.90;99.90;;;;;;5054002;28;20227;-58
2023/05/18 03:30:25;;;;;;;3.13;2.57;;;6.90;99.90;;;;;;5054047;28;20203;-58
2023/05/18 03:32:52;;;;;;;6.40;3.57;;;6.90;99.90;;;;;;5051559;28;20195;-58
2023/05/18 03:35:19;;;;;;;5.47;3.57;;;6.80;99.90;;;;;;5053995;28;20200;-58
2023/05/18 03:37:46;;;;;;;6.60;5.37;;;6.80;99.90;;;;;;5052668;28;20220;-59
2023/05/18 03:40:15;;;;;;;4.73;4.27;;;6.80;99.90;;;;;;5053570;28;20558;-58
2023/05/18 03:42:44;;;;;;;4.23;3.77;;;6.70;99.90;;;;;;5053422;28;20270;-58
2023/05/18 03:45:11;;;;;;;6.90;5.23;;;6.70;99.90;;;;;;5052743;28;20252;-58
2023/05/18 03:47:39;;;;;;;7.33;6.70;;;6.70;99.90;;;;;;5053342;28;20863;-58
2023/05/18 03:50:08;;;;;;;5.40;3.83;;;6.80;99.90;;;;;;5053328;28;20233;-58
2023/05/18 03:52:35;;;;;;;5.93;4.30;;;6.80;99.90;;;;;;5053390;28;20767;-58
2023/05/18 03:55:04;;;;;;;4.97;4.60;;;6.80;99.90;;;;;;5050398;28;20212;-58
2023/05/18 03:57:31;;;;;;;4.60;4.23;;;6.70;99.90;;;;;;5050836;28;20220;-58
2023/05/18 04:00:00;;;;;;;4.73;3.83;;;6.80;99.90;;;;;;5051994;28;20286;-58
2023/05/18 04:02:27;;;;;;;4.20;3.63;;;6.80;99.90;;;;;;5053146;28;20580;-58
2023/05/18 04:04:56;;;;;;;6.53;3.80;;;6.80;99.90;;;;;;5053401;28;20211;-58
2023/05/18 04:07:23;;;;;;;3.73;3.40;;;6.80;99.90;;;;;;5053133;28;20319;-59
2023/05/18 04:09:51;;;;;;;3.67;3.47;;;6.80;99.90;;;;;;5051467;28;20200;-58
2023/05/18 04:12:18;;;;;;;3.67;3.07;;;6.80;99.90;;;;;;5050571;28;20208;-58
2023/05/18 04:14:48;;;;;;;14.03;7.70;;;6.90;99.90;;;;;;5052923;28;20247;-58
2023/05/18 04:17:17;;;;;;;10.10;8.57;;;6.90;99.90;;;;;;5053014;28;20342;-58
2023/05/18 04:19:44;;;;;;;8.70;7.90;;;7.00;99.90;;;;;;5052924;28;20646;-58
2023/05/18 04:22:11;;;;;;;11.37;10.27;;;7.00;99.90;;;;;;5052821;28;20215;-58
2023/05/18 04:24:40;;;;;;;8.77;8.00;;;7.10;99.90;;;;;;5051180;28;20259;-59
2023/05/18 04:27:08;;;;;;;7.50;6.77;;;7.30;99.90;;;;;;5050579;28;20284;-58
2023/05/18 04:29:37;;;;;;;10.40;9.37;;;7.40;99.90;;;;;;5052890;28;20279;-57
2023/05/18 04:32:06;;;;;;;10.03;9.13;;;7.50;99.90;;;;;;5052735;28;20204;-59
2023/05/18 04:34:36;;;;;;;9.67;8.73;;;7.60;99.90;;;;;;5052690;28;20204;-58
2023/05/18 04:37:04;;;;;;;6.20;5.70;;;7.70;99.90;;;;;;5050371;28;20207;-58
2023/05/18 04:39:31;;;;;;;18.20;16.60;;;7.80;99.90;;;;;;5052446;28;20740;-58
2023/05/18 04:41:58;;;;;;;20.03;18.23;;;7.90;99.90;;;;;;5050529;28;20269;-58
2023/05/18 04:44:27;;;;;;;14.93;13.50;;;8.00;99.90;;;;;;5045261;28;20668;-58
2023/05/18 04:46:55;;;;;;;12.73;11.50;;;7.70;99.90;;;;;;5047782;28;20284;-58
2023/05/18 04:49:22;;;;;;;11.40;10.30;;;8.30;99.90;;;;;;5049325;28;20196;-58
2023/05/18 04:51:54;;;;;;;8.23;6.47;;;8.50;99.90;;;;;;5052193;28;20607;-58
2023/05/18 04:54:23;;;;;;;9.30;7.23;;;8.60;99.90;;;;;;5052328;28;20220;-58
2023/05/18 04:56:50;;;;;;;8.63;3.97;;;8.70;99.90;;;;;;5052310;28;20202;-58
2023/05/18 04:59:17;;;;;;;3.80;3.47;;;8.80;99.90;;;;;;5050576;28;20223;-58
2023/05/18 05:01:46;;;;;;;4.40;3.53;;;8.90;99.90;;;;;;5049799;28;20261;-59
2023/05/18 05:04:13;;;;;;;3.23;3.03;;;9.30;99.90;;;;;;5051979;28;20294;-58
2023/05/18 05:06:40;;;;;;;7.37;5.53;;;9.70;99.90;;;;;;5052024;28;20261;-58
2023/05/18 05:09:08;;;;;;;4.07;3.00;;;10.30;99.90;;;;;;5051936;28;20281;-58
2023/05/18 05:11:35;;;;;;;4.47;2.87;;;11.00;99.90;;;;;;5051249;28;20326;-58
2023/05/18 05:14:02;;;;;;;3.83;3.17;;;11.40;99.90;;;;;;5046271;28;20195;-58
2023/05/18 05:16:29;;;;;;;5.53;4.30;;;12.00;99.90;;;;;;5047621;28;20633;-59
2023/05/18 05:18:57;;;;;;;9.77;8.17;;;12.50;99.90;;;;;;5049717;28;20279;-58
2023/05/18 05:21:24;;;;;;;4.33;3.97;;;13.10;99.90;;;;;;5051742;28;20589;-59
2023/05/18 05:23:50;;;;;;;5.33;4.30;;;13.30;99.90;;;;;;5049605;28;20266;-59
2023/05/18 05:26:20;;;;;;;5.13;4.63;;;13.40;99.90;;;;;;5049830;28;20275;-58
2023/05/18 05:28:47;;;;;;;7.23;6.60;;;13.70;99.90;;;;;;5051569;28;20302;-59
2023/05/18 05:31:14;;;;;;;3.83;3.33;;;14.30;99.90;;;;;;5048486;28;20213;-59
2023/05/18 05:33:41;;;;;;;6.63;6.13;;;14.60;99.90;;;;;;5051179;28;20388;-58
2023/05/18 05:36:09;;;;;;;2.93;2.70;;;14.90;99.90;;;;;;5050498;28;20263;-59
2023/05/18 05:38:36;;;;;;;7.83;7.13;;;15.30;99.90;;;;;;5047551;28;20224;-58
2023/05/18 05:41:03;;;;;;;6.00;5.27;;;15.80;99.90;;;;;;5051267;28;20201;-58
2023/05/18 05:43:31;;;;;;;5.03;4.13;;;16.40;99.90;;;;;;5050693;28;20198;-58
2023/05/18 05:45:58;;;;;;;3.70;3.40;;;16.80;99.90;;;;;;5049333;28;20636;-58
2023/05/18 05:48:25;;;;;;;3.67;3.37;;;17.00;99.90;;;;;;5051063;28;20216;-58
2023/05/18 05:50:52;;;;;;;5.17;3.00;;;17.20;99.90;;;;;;5048972;28;20205;-58
2023/05/18 05:53:22;;;;;;;2.77;2.33;;;17.40;99.90;;;;;;5050954;28;20193;-58
2023/05/18 05:55:49;;;;;;;6.97;6.47;;;16.90;99.90;;;;;;5051168;28;20529;-59
2023/05/18 05:58:16;;;;;;;7.17;6.47;;;17.70;99.90;;;;;;5051028;28;20221;-58
2023/05/18 06:00:45;;;;;;;7.73;6.57;;;18.00;99.90;;;;;;5050223;28;20256;-59
2023/05/18 06:03:12;;;;;;;4.83;4.03;;;18.30;99.90;;;;;;5046662;28;20256;-58
2023/05/18 06:05:39;;;;;;;4.53;4.27;;;18.40;99.90;;;;;;5050937;28;20206;-59
2023/05/18 06:08:06;;;;;;;5.87;3.73;;;18.20;99.90;;;;;;5051106;28;20222;-58
2023/05/18 06:10:34;;;;;;;2.77;2.57;;;18.80;99.90;;;;;;5051154;28;20278;-58
2023/05/18 06:13:01;;;;;;;7.70;7.10;;;19.20;99.90;;;;;;5050854;28;20608;-59
2023/05/18 06:15:28;;;;;;;5.07;4.83;;;19.40;99.90;;;;;;5047663;28;20210;-59
2023/05/18 06:17:56;;;;;;;5.87;5.33;;;19.90;99.90;;;;;;5048460;28;20302;-58
2023/05/18 06:20:25;;;;;;;6.93;5.37;;;20.40;99.90;;;;;;5050720;28;20213;-58
2023/05/18 06:22:52;;;;;;;6.10;5.57;;;20.60;99.90;;;;;;5049779;28;20204;-59
2023/05/18 06:25:19;;;;;;;5.23;4.53;;;20.70;99.90;;;;;;5045769;28;20198;-59
2023/05/18 06:27:46;;;;;;;6.47;5.67;;;20.00;99.90;;;;;;5049673;28;20226;-59
2023/05/18 06:30:13;;;;;;;6.03;5.50;;;19.40;99.90;;;;;;5050956;28;20200;-58
2023/05/18 06:32:40;;;;;;;3.67;3.47;;;19.70;99.90;;;;;;5051833;28;20209;-59
2023/05/18 06:35:10;;;;;;;6.63;3.77;;;19.80;99.90;;;;;;5051442;28;20267;-58
2023/05/18 06:37:38;;;;;;;4.27;3.60;;;19.50;99.90;;;;;;5048762;28;21008;-59
2023/05/18 06:40:07;;;;;;;3.77;3.47;;;20.20;99.90;;;;;;5054207;28;20304;-58
2023/05/18 06:42:35;;;;;;;4.60;4.20;;;20.10;99.90;;;;;;5059156;28;20280;-58
2023/05/18 06:45:02;;;;;;;3.97;3.67;;;20.10;99.90;;;;;;5054572;28;20674;-59
2023/05/18 06:47:29;;;;;;;9.13;8.23;;;19.30;99.90;;;;;;5054741;28;20547;-59
2023/05/18 06:49:56;;;;;;;4.90;3.80;;;19.90;99.90;;;;;;5055968;28;20255;-59
2023/05/18 06:52:24;;;;;;;3.93;3.33;;;20.50;99.90;;;;;;5050580;28;20202;-58
2023/05/18 06:54:51;;;;;;;5.40;4.20;;;20.30;99.90;;;;;;5054300;28;20209;-58
2023/05/18 06:57:18;;;;;;;4.20;3.40;;;20.70;99.90;;;;;;5053413;28;20221;-58
2023/05/18 06:59:49;;;;;;;4.67;3.87;;;21.10;99.90;;;;;;5053313;28;20248;-58
2023/05/18 07:02:16;;;;;;;5.90;3.93;;;21.30;99.90;;;;;;5054053;28;20551;-59
2023/05/18 07:04:43;;;;;;;4.60;4.20;;;21.00;99.90;;;;;;5055676;28;20217;-59
2023/05/18 07:07:10;;;;;;;4.97;4.53;;;21.30;99.90;;;;;;5048586;28;20203;-58
2023/05/18 07:09:40;;;;;;;5.80;4.33;;;21.30;99.90;;;;;;5050138;28;20205;-59
2023/05/18 07:12:08;;;;;;;5.10;3.93;;;21.40;99.90;;;;;;5054066;28;20212;-58
2023/05/18 07:14:36;;;;;;;3.87;3.00;;;21.40;99.90;;;;;;5053978;28;20202;-58
2023/05/18 07:17:05;;;;;;;4.57;3.70;;;21.40;99.90;;;;;;5054138;28;20293;-59
2023/05/18 07:19:33;;;;;;;4.13;3.53;;;21.40;99.90;;;;;;5053838;28;20317;-59
2023/05/18 07:22:04;;;;;;;3.17;2.97;;;20.20;99.90;;;;;;5054185;28;20205;-57
2023/05/18 07:24:31;;;;;;;3.43;3.07;;;20.40;99.90;;;;;;5052262;28;20671;-59
2023/05/18 07:27:02;;;;;;;9.43;4.33;;;20.90;99.90;;;;;;5053806;28;20212;-58
2023/05/18 07:29:29;;;;;;;6.20;5.80;;;21.00;99.90;;;;;;5042325;28;20198;-59
2023/05/18 07:31:56;;;;;;;4.30;3.50;;;21.30;99.90;;;;;;5051670;28;20662;-58
2023/05/18 07:34:25;;;;;;;2.67;2.47;;;21.30;99.90;;;;;;5046236;28;20917;-58
2023/05/18 07:36:52;;;;;;;4.00;2.80;;;21.40;99.90;;;;;;5053369;28;20202;-58
2023/05/18 07:39:20;;;;;;;3.60;3.30;;;21.10;99.90;;;;;;5046536;28;20683;-58
2023/05/18 07:41:48;;;;;;;3.03;2.87;;;21.00;99.90;;;;;;5048631;28;20290;-59
2023/05/18 07:44:16;;;;;;;3.37;3.17;;;21.60;99.90;;;;;;5051652;28;20202;-58
2023/05/18 07:46:43;;;;;;;4.67;2.87;;;22.00;99.90;;;;;;5051715;28;20206;-58
2023/05/18 07:49:10;;;;;;;3.80;3.27;;;22.30;99.90;;;;;;5049143;28;20213;-57
2023/05/18 07:51:37;;;;;;;4.00;3.67;;;21.30;99.90;;;;;;5049387;28;20202;-57
2023/05/18 07:54:05;;;;;;;3.73;3.27;;;20.20;99.90;;;;;;5051220;28;20198;-57
2023/05/18 07:56:32;;;;;;;4.47;4.07;;;20.40;99.90;;;;;;5053512;28;20492;-59
2023/05/18 07:58:58;;;;;;;3.17;2.97;;;20.80;99.90;;;;;;5053142;28;20721;-58
2023/05/18 08:01:29;;;;;;;4.37;4.00;;;20.90;99.90;;;;;;5053419;28;20209;-58
2023/05/18 08:03:56;;;;;;;3.77;3.40;;;21.60;99.90;;;;;;5046730;28;20209;-57
2023/05/18 08:06:23;;;;;;;3.87;3.23;;;21.70;99.90;;;;;;5051104;28;20202;-57
2023/05/18 08:08:50;;;;;;;8.07;7.03;;;20.90;99.90;;;;;;5049432;28;20222;-58
2023/05/18 08:11:17;;;;;;;3.20;2.90;;;21.00;99.90;;;;;;5051925;28;20252;-57
2023/05/18 08:13:44;;;;;;;2.67;2.43;;;21.20;99.90;;;;;;5052718;28;20194;-58
2023/05/18 08:16:11;;;;;;;3.00;2.70;;;21.40;99.90;;;;;;5053417;28;20255;-58
2023/05/18 08:18:40;;;;;;;2.33;2.23;;;21.80;99.90;;;;;;5052987;28;20244;-58
2023/05/18 08:21:08;;;;;;;1.87;1.77;;;21.40;99.60;;;;;;5052953;28;20283;-58
2023/05/18 08:23:35;;;;;;;3.63;2.20;;;21.00;99.90;;;;;;5050595;28;20198;-58
2023/05/18 08:26:03;;;;;;;3.37;1.63;;;21.40;99.90;;;;;;5050695;28;20522;-58
2023/05/18 08:28:30;;;;;;;3.07;1.33;;;21.80;99.90;;;;;;5053158;28;20214;-58
2023/05/18 08:30:57;;;;;;;1.50;1.50;;;21.50;99.40;;;;;;5052829;28;20633;-58
2023/05/18 08:33:24;;;;;;;4.03;2.27;;;21.50;99.10;;;;;;5049206;28;20264;-58
2023/05/18 08:35:53;;;;;;;2.30;2.20;;;22.00;99.60;;;;;;5052684;28;20267;-58
2023/05/18 08:38:20;;;;;;;4.73;4.10;;;22.90;99.30;;;;;;5051685;28;20234;-58
2023/05/18 08:40:54;;;;;;;2.67;2.53;;;22.80;96.30;;;;;;5045492;28;20222;-58
2023/05/18 08:43:26;;;;;;;3.43;2.53;;;22.50;98.10;;;;;;5050184;28;20248;-58
2023/05/18 08:46:02;;;;;;;3.00;2.80;;;23.00;99.00;;;;;;5052209;28;20197;-58
2023/05/18 08:48:31;;;;;;;2.77;2.00;;;23.50;98.20;;;;;;5052465;28;20222;-59
2023/05/18 08:51:02;;;;;;;2.70;2.60;;;23.30;97.80;;;;;;5052303;28;20202;-58
2023/05/18 08:53:32;;;;;;;2.47;2.37;;;22.40;98.30;;;;;;5052652;28;20294;-58
2023/05/18 08:56:00;;;;;;;4.17;3.07;;;21.80;99.80;;;;;;5048915;28;20267;-58
2023/05/18 08:58:34;;;;;;;2.77;2.60;;;21.50;99.90;;;;;;5047577;28;20252;-58
2023/05/18 09:01:02;;;;;;;3.73;2.80;;;22.40;98.60;;;;;;5040435;28;20276;-58
2023/05/18 09:03:30;;;;;;;3.73;3.43;;;22.60;99.00;;;;;;5042371;28;20292;-58
2023/05/18 09:06:02;;;;;;;6.03;3.33;;;22.40;99.80;;;;;;5052436;28;20198;-57
2023/05/18 09:08:30;;;;;;;3.83;3.23;;;21.40;99.90;;;;;;5052225;28;20226;-58
2023/05/18 09:10:58;;;;;;;4.87;4.33;;;21.10;99.90;;;;;;5049256;28;20667;-58
2023/05/18 09:13:25;;;;;;;4.17;3.40;;;20.80;99.90;;;;;;5049044;28;20292;-58
2023/05/18 09:15:53;;;;;;;3.23;3.00;;;19.70;99.90;;;;;;5040988;28;20298;-58
2023/05/18 09:18:20;;;;;;;4.90;4.60;;;20.40;99.90;;;;;;5051713;28;20676;-58
2023/05/18 09:20:47;;;;;;;3.97;3.40;;;20.40;99.90;;;;;;5051624;28;20271;-58
2023/05/18 09:23:16;;;;;;;5.03;4.63;;;20.40;99.90;;;;;;5051475;28;20206;-59
2023/05/18 09:25:45;;;;;;;3.90;3.43;;;20.40;99.80;;;;;;5051927;28;20201;-59
2023/05/18 09:28:13;;;;;;;5.83;4.53;;;20.90;99.90;;;;;;5051571;28;20237;-59
2023/05/18 09:30:41;;;;;;;4.20;3.83;;;21.80;99.90;;;;;;5049385;28;20200;-58
2023/05/18 09:33:18;;;;;;;4.47;4.07;;;22.10;99.10;;;;;;5043248;28;20201;-59
2023/05/18 09:35:46;;;;;;;5.57;3.20;;;21.20;99.30;;;;;;5051890;28;20266;-58
2023/05/18 09:38:14;;;;;;;5.60;4.20;;;21.10;99.90;;;;;;5051614;28;20312;-59
2023/05/18 09:40:47;;;;;;;3.00;2.80;;;21.10;99.90;;;;;;5051593;28;20221;-58
2023/05/18 09:43:14;;;;;;;3.77;3.47;;;21.50;99.90;;;;;;5051388;28;20220;-58
2023/05/18 09:45:43;;;;;;;4.47;4.10;;;21.30;99.90;;;;;;5049101;28;20206;-59
2023/05/18 09:48:11;;;;;;;7.13;6.67;;;21.20;99.90;;;;;;5039838;28;20236;-59
2023/05/18 09:50:38;;;;;;;4.57;3.97;;;20.80;99.90;;;;;;5050658;28;20263;-59
2023/05/18 09:53:08;;;;;;;5.10;3.37;;;20.60;99.90;;;;;;5050091;28;20201;-58
2023/05/18 09:55:44;;;;;;;3.33;3.03;;;20.20;99.90;;;;;;5048088;28;20234;-59
2023/05/18 09:58:13;;;;;;;5.80;3.07;;;19.90;99.90;;;;;;5048596;28;20217;-58
2023/05/18 10:00:42;;;;;;;4.13;3.40;;;19.30;99.90;;;;;;5051315;28;20221;-58
2023/05/18 10:03:21;;;;;;;4.57;4.10;;;19.30;99.90;;;;;;5040585;28;20212;-58
2023/05/18 10:05:48;;;;;;;4.53;4.03;;;18.70;99.90;;;;;;5049288;28;20296;-58
2023/05/18 10:08:16;;;;;;;2.80;2.60;;;18.60;99.90;;;;;;5048932;28;20221;-58
2023/05/18 10:10:47;;;;;;;4.40;4.00;;;18.50;99.90;;;;;;5051839;28;20198;-58
2023/05/18 10:13:18;;;;;;;7.13;4.33;;;18.40;99.90;;;;;;5049355;28;20202;-58
2023/05/18 10:15:50;;;;;;;6.97;6.33;;;18.40;99.90;;;;;;5045655;28;20209;-59
2023/05/18 10:18:22;;;;;;;5.03;4.73;;;18.70;99.90;;;;;;5048614;28;20225;-59
2023/05/18 10:20:50;;;;;;;2.87;2.67;;;19.00;99.90;;;;;;5046083;28;20245;-59
2023/05/18 10:23:18;;;;;;;5.10;3.47;;;19.10;99.90;;;;;;5043555;28;20259;-57
2023/05/18 10:25:47;;;;;;;3.97;3.67;;;19.20;99.90;;;;;;5049750;28;20292;-59
2023/05/18 10:28:24;;;;;;;2.87;2.77;;;19.10;99.90;;;;;;5044770;28;20214;-58
2023/05/18 10:30:53;;;;;;;2.87;2.67;;;19.10;99.90;;;;;;5048592;28;20236;-58
2023/05/18 10:33:26;;;;;;;6.23;2.83;;;18.90;99.90;;;;;;5050238;28;20210;-58
2023/05/18 10:35:54;;;;;;;4.97;3.93;;;19.10;99.90;;;;;;5046345;28;20622;-58
2023/05/18 10:38:23;;;;;;;4.10;3.90;;;19.30;99.90;;;;;;5049152;28;20222;-59
2023/05/18 10:40:52;;;;;;;2.70;2.60;;;19.30;99.90;;;;;;5050264;28;20557;-59
2023/05/18 10:43:22;;;;;;;5.30;4.87;;;19.40;99.90;;;;;;5048669;28;20690;-58
2023/05/18 10:45:53;;;;;;;5.90;5.37;;;19.40;99.90;;;;;;5045313;28;20202;-58
2023/05/18 10:48:21;;;;;;;6.30;5.00;;;19.50;99.90;;;;;;5046260;28;20260;-59
2023/05/18 10:50:50;;;;;;;3.00;2.80;;;19.70;99.90;;;;;;5045172;28;20330;-58
2023/05/18 10:53:19;;;;;;;4.17;3.93;;;19.70;99.90;;;;;;5049971;28;20194;-58
2023/05/18 10:55:47;;;;;;;7.83;3.87;;;19.60;99.90;;;;;;5048520;28;20200;-58
2023/05/18 10:58:18;;;;;;;3.63;3.33;;;19.20;99.90;;;;;;5049581;28;20698;-58
2023/05/18 11:00:50;;;;;;;2.90;2.70;;;19.30;99.90;;;;;;5046791;28;20210;-58
2023/05/18 11:03:18;;;;;;;4.80;4.50;;;19.10;99.90;;;;;;5043900;28;20217;-59
2023/05/18 11:05:50;;;;;;;2.73;2.53;;;19.30;99.90;;;;;;5048185;28;20264;-59
2023/05/18 11:08:26;;;;;;;3.63;3.30;;;19.00;99.90;;;;;;5050554;28;20214;-58
2023/05/18 11:11:01;;;;;;;3.80;3.50;;;18.80;99.90;;;;;;5046293;28;20282;-59
2023/05/18 11:13:30;;;;;;;1.90;1.80;;;18.90;99.90;;;;;;5048203;28;20201;-58
2023/05/18 11:16:08;;;;;;;4.13;2.13;;;18.80;99.90;;;;;;5050499;28;20202;-58
2023/05/18 11:18:44;;;;;;;2.37;2.00;;;18.80;99.90;;;;;;5051235;28;20605;-58
2023/05/18 11:21:21;;;;;;;2.53;2.40;;;18.60;99.90;;;;;;5044381;28;20685;-58
2023/05/18 11:24:23;;;;;;;2.40;1.90;;;18.10;99.90;;;;;;5046543;28;20195;-56
2023/05/18 11:26:52;;;;;;;5.77;5.20;;;18.00;99.90;;;;;;4990136;28;20327;-56
2023/05/18 11:29:22;;;;;;;2.83;2.63;;;18.10;99.90;;;;;;4991224;28;20235;-56
2023/05/18 11:31:52;;;;;;;1.87;1.77;;;18.10;99.90;;;;;;5022333;28;20226;-56
2023/05/18 11:34:35;;;;;;;2.60;2.20;;;18.20;99.90;;;;;;5053585;28;20208;-56
2023/05/18 11:37:03;;;;;;;2.73;2.53;;;18.20;99.90;;;;;;5053252;28;20202;-56
2023/05/18 11:39:30;;;;;;;2.17;2.13;;;18.10;99.90;;;;;;5053825;28;20240;-56
2023/05/18 11:42:00;;;;;;;2.33;2.20;;;18.10;99.90;;;;;;5043414;28;20202;-56
2023/05/18 11:44:28;;;;;;;3.87;1.97;;;18.10;99.90;;;;;;5044736;28;20233;-56
2023/05/18 11:47:01;;;;;;;1.30;1.20;;;18.10;99.90;;;;;;5053741;28;20267;-56
2023/05/18 11:49:28;;;;;;;2.67;1.53;;;17.90;99.90;;;;;;5036809;28;20285;-55
2023/05/18 11:52:07;;;;;;;2.03;1.87;;;17.90;99.90;;;;;;5035881;28;20319;-55
2023/05/18 11:54:37;;;;;;;3.53;1.93;;;17.80;99.90;;;;;;5049094;28;20206;-56
2023/05/18 11:57:05;;;;;;;4.97;2.60;;;17.80;99.90;;;;;;5053542;28;20205;-55
2023/05/18 11:59:33;;;;;;;2.87;1.73;;;17.70;99.90;;;;;;5053690;28;20202;-56
2023/05/18 12:02:03;;;;;;;2.13;1.83;;;17.70;99.90;;;;;;5049789;28;20580;-56
2023/05/18 12:04:32;;;;;;;2.90;1.73;;;17.80;99.90;;;;;;5053435;28;20371;-56
2023/05/18 12:07:06;;;;;;;4.27;2.10;;;17.90;99.90;;;;;;5053484;28;20197;-56
2023/05/18 12:09:34;;;;;;;1.70;1.60;;;18.10;99.90;;;;;;5049019;28;20255;-56
2023/05/18 12:12:03;;;;;;;2.50;1.97;;;18.20;99.90;;;;;;5053190;28;20241;-56
2023/05/18 12:14:31;;;;;;;1.23;1.13;;;17.90;99.90;;;;;;5053227;28;20198;-56
2023/05/18 12:17:04;;;;;;;5.67;5.27;;;18.00;99.90;;;;;;5053101;28;20260;-56
2023/05/18 12:19:38;;;;;;;2.10;1.70;;;18.10;99.90;;;;;;5048831;28;20641;-57
2023/05/18 12:22:05;;;;;;;1.67;1.37;;;18.00;99.90;;;;;;5051343;28;20206;-56
2023/05/18 12:24:33;;;;;;;4.23;3.90;;;17.90;99.90;;;;;;5050128;28;20198;-57
2023/05/18 12:27:06;;;;;;;3.00;2.67;;;17.90;99.90;;;;;;5052823;28;20202;-57
2023/05/18 12:29:34;;;;;;;5.23;4.87;;;17.90;99.90;;;;;;5048179;28;20277;-56
2023/05/18 12:32:08;;;;;;;5.00;4.53;;;18.00;99.90;;;;;;5043863;28;20218;-56
2023/05/18 12:34:35;;;;;;;4.17;3.43;;;18.10;99.90;;;;;;5052453;28;20208;-56
2023/05/18 12:37:03;;;;;;;6.77;4.27;;;17.90;99.90;;;;;;5054738;28;20236;-56
2023/05/18 12:39:30;;;;;;;9.93;9.20;;;17.70;99.90;;;;;;5049580;28;20202;-56
2023/05/18 12:42:10;;;;;;;1.47;1.40;;;17.90;99.90;;;;;;5050923;28;20201;-56
2023/05/18 12:44:37;;;;;;;5.93;5.47;;;18.10;99.90;;;;;;5050381;28;20208;-55
2023/05/18 12:47:06;;;;;;;6.40;5.73;;;18.00;99.90;;;;;;5048982;28;20663;-56
2023/05/18 12:49:38;;;;;;;2.33;2.17;;;18.10;99.90;;;;;;5052547;28;20255;-56
2023/05/18 12:52:12;;;;;;;4.87;4.37;;;18.20;99.90;;;;;;5044540;28;20229;-58
2023/05/18 12:54:53;;;;;;;2.63;2.50;;;18.10;99.90;;;;;;5049659;28;20197;-58
2023/05/18 12:57:24;;;;;;;5.57;5.07;;;18.00;99.90;;;;;;5047388;28;20217;-58
2023/05/18 12:59:51;;;;;;;4.40;4.10;;;18.10;99.90;;;;;;5048839;28;20194;-58